sensor_id;sensor_type;location;lat;lon;timestamp;P1;durP1;ratioP1;P2;durP2;ratioP2
23614;SDS011;11985;49.404;7.734;2024-02-23T00:00:58;5.90;;;0.77;;
23614;SDS011;11985;49.404;7.734;2024-02-23T00:06:00;6.78;;;1.00;;
23614;SDS011;11985;49.404;7.734;2024-02-23T00:11:04;4.45;;;0.88;;
23614;SDS011;11985;49.404;7.734;2024-02-23T00:16:06;5.20;;;1.00;;
23614;SDS011;11985;49.404;7.734;2024-02-23T00:21:08;4.05;;;1.08;;
23614;SDS011;11985;49.404;7.734;2024-02-23T00:26:11;6.25;;;0.90;;
23614;SDS011;11985;49.404;7.734;2024-02-23T00:31:13;7.55;;;1.08;;
23614;SDS011;11985;49.404;7.734;2024-02-23T00:36:15;4.07;;;0.90;;
23614;SDS011;11985;49.404;7.734;2024-02-23T00:41:17;7.72;;;1.05;;
23614;SDS011;11985;49.404;7.734;2024-02-23T00:46:19;6.55;;;0.98;;
23614;SDS011;11985;49.404;7.734;2024-02-23T00:51:21;4.25;;;0.85;;
23614;SDS011;11985;49.404;7.734;2024-02-23T00:56:27;4.32;;;0.75;;
23614;SDS011;11985;49.404;7.734;2024-02-23T01:01:29;0.52;;;0.30;;
23614;SDS011;11985;49.404;7.734;2024-02-23T01:06:32;1.75;;;0.30;;
23614;SDS011;11985;49.404;7.734;2024-02-23T01:11:36;1.92;;;0.45;;
23614;SDS011;11985;49.404;7.734;2024-02-23T01:16:38;2.95;;;0.30;;
23614;SDS011;11985;49.404;7.734;2024-02-23T01:21:39;0.20;;;0.20;;
23614;SDS011;11985;49.404;7.734;2024-02-23T01:26:42;0.60;;;0.15;;
23614;SDS011;11985;49.404;7.734;2024-02-23T01:31:43;1.90;;;0.30;;
23614;SDS011;11985;49.404;7.734;2024-02-23T01:36:45;2.28;;;0.98;;
23614;SDS011;11985;49.404;7.734;2024-02-23T01:41:49;3.30;;;0.70;;
23614;SDS011;11985;49.404;7.734;2024-02-23T01:46:51;5.37;;;0.70;;
23614;SDS011;11985;49.404;7.734;2024-02-23T01:51:52;3.78;;;0.70;;
23614;SDS011;11985;49.404;7.734;2024-02-23T01:56:55;5.05;;;0.70;;
23614;SDS011;11985;49.404;7.734;2024-02-23T02:02:00;6.40;;;0.90;;
23614;SDS011;11985;49.404;7.734;2024-02-23T02:07:03;4.03;;;0.60;;
23614;SDS011;11985;49.404;7.734;2024-02-23T02:12:07;6.60;;;0.90;;
23614;SDS011;11985;49.404;7.734;2024-02-23T02:17:09;7.72;;;0.90;;
23614;SDS011;11985;49.404;7.734;2024-02-23T02:22:11;4.65;;;0.95;;
23614;SDS011;11985;49.404;7.734;2024-02-23T02:27:14;4.28;;;0.77;;
23614;SDS011;11985;49.404;7.734;2024-02-23T02:32:16;5.28;;;1.15;;
23614;SDS011;11985;49.404;7.734;2024-02-23T02:37:18;3.28;;;0.82;;
23614;SDS011;11985;49.404;7.734;2024-02-23T02:42:21;3.35;;;1.00;;
23614;SDS011;11985;49.404;7.734;2024-02-23T02:47:22;8.52;;;1.15;;
23614;SDS011;11985;49.404;7.734;2024-02-23T02:52:24;6.97;;;1.52;;
23614;SDS011;11985;49.404;7.734;2024-02-23T02:57:27;3.13;;;0.60;;
23614;SDS011;11985;49.404;7.734;2024-02-23T03:02:29;7.97;;;1.13;;
23614;SDS011;11985;49.404;7.734;2024-02-23T03:07:31;4.70;;;0.82;;
23614;SDS011;11985;49.404;7.734;2024-02-23T03:12:34;6.70;;;1.10;;
23614;SDS011;11985;49.404;7.734;2024-02-23T03:17:36;4.15;;;1.05;;
23614;SDS011;11985;49.404;7.734;2024-02-23T03:22:37;5.97;;;0.90;;
23614;SDS011;11985;49.404;7.734;2024-02-23T03:27:40;4.53;;;1.00;;
23614;SDS011;11985;49.404;7.734;2024-02-23T03:32:42;5.22;;;0.88;;
23614;SDS011;11985;49.404;7.734;2024-02-23T03:37:43;9.73;;;1.45;;
23614;SDS011;11985;49.404;7.734;2024-02-23T03:42:46;3.42;;;0.80;;
23614;SDS011;11985;49.404;7.734;2024-02-23T03:47:48;8.85;;;1.25;;
23614;SDS011;11985;49.404;7.734;2024-02-23T03:52:49;8.57;;;1.13;;
23614;SDS011;11985;49.404;7.734;2024-02-23T03:57:52;2.55;;;0.80;;
23614;SDS011;11985;49.404;7.734;2024-02-23T04:02:54;2.70;;;0.60;;
23614;SDS011;11985;49.404;7.734;2024-02-23T04:07:56;5.20;;;0.82;;
23614;SDS011;11985;49.404;7.734;2024-02-23T04:12:59;5.13;;;0.98;;
23614;SDS011;11985;49.404;7.734;2024-02-23T04:18:01;5.70;;;0.95;;
23614;SDS011;11985;49.404;7.734;2024-02-23T04:23:03;3.90;;;1.20;;
23614;SDS011;11985;49.404;7.734;2024-02-23T04:28:06;3.50;;;1.00;;
23614;SDS011;11985;49.404;7.734;2024-02-23T04:33:08;6.28;;;1.00;;
23614;SDS011;11985;49.404;7.734;2024-02-23T04:38:09;6.88;;;1.05;;
23614;SDS011;11985;49.404;7.734;2024-02-23T04:43:13;3.58;;;0.95;;
23614;SDS011;11985;49.404;7.734;2024-02-23T04:48:14;5.28;;;1.17;;
23614;SDS011;11985;49.404;7.734;2024-02-23T04:53:16;5.47;;;1.08;;
23614;SDS011;11985;49.404;7.734;2024-02-23T04:58:19;4.60;;;0.93;;
23614;SDS011;11985;49.404;7.734;2024-02-23T05:03:22;1.73;;;0.68;;
23614;SDS011;11985;49.404;7.734;2024-02-23T05:08:23;1.85;;;0.68;;
23614;SDS011;11985;49.404;7.734;2024-02-23T05:13:26;3.25;;;0.93;;
23614;SDS011;11985;49.404;7.734;2024-02-23T05:18:28;6.32;;;1.20;;
23614;SDS011;11985;49.404;7.734;2024-02-23T05:23:29;3.42;;;0.90;;
23614;SDS011;11985;49.404;7.734;2024-02-23T05:28:32;3.65;;;0.90;;
23614;SDS011;11985;49.404;7.734;2024-02-23T05:33:36;5.65;;;1.05;;
23614;SDS011;11985;49.404;7.734;2024-02-23T05:38:38;9.88;;;1.40;;
23614;SDS011;11985;49.404;7.734;2024-02-23T05:43:41;4.35;;;1.10;;
23614;SDS011;11985;49.404;7.734;2024-02-23T05:48:42;5.30;;;1.13;;
23614;SDS011;11985;49.404;7.734;2024-02-23T05:53:44;6.43;;;1.10;;
23614;SDS011;11985;49.404;7.734;2024-02-23T05:58:47;8.13;;;1.50;;
23614;SDS011;11985;49.404;7.734;2024-02-23T06:03:49;5.28;;;0.88;;
23614;SDS011;11985;49.404;7.734;2024-02-23T06:08:51;10.82;;;1.27;;
23614;SDS011;11985;49.404;7.734;2024-02-23T06:13:54;10.32;;;1.30;;
23614;SDS011;11985;49.404;7.734;2024-02-23T06:18:55;10.20;;;0.90;;
23614;SDS011;11985;49.404;7.734;2024-02-23T06:23:57;9.85;;;1.73;;
23614;SDS011;11985;49.404;7.734;2024-02-23T06:29:00;7.82;;;1.52;;
23614;SDS011;11985;49.404;7.734;2024-02-23T06:34:01;10.23;;;1.50;;
23614;SDS011;11985;49.404;7.734;2024-02-23T06:39:03;5.93;;;1.35;;
23614;SDS011;11985;49.404;7.734;2024-02-23T06:44:06;5.60;;;1.00;;
23614;SDS011;11985;49.404;7.734;2024-02-23T06:49:07;2.67;;;0.73;;
23614;SDS011;11985;49.404;7.734;2024-02-23T06:54:09;13.05;;;1.20;;
23614;SDS011;11985;49.404;7.734;2024-02-23T06:59:12;2.28;;;0.80;;
23614;SDS011;11985;49.404;7.734;2024-02-23T07:04:13;7.53;;;0.95;;
23614;SDS011;11985;49.404;7.734;2024-02-23T07:09:15;7.40;;;1.15;;
23614;SDS011;11985;49.404;7.734;2024-02-23T07:14:18;4.07;;;0.80;;
23614;SDS011;11985;49.404;7.734;2024-02-23T07:19:22;7.65;;;1.23;;
23614;SDS011;11985;49.404;7.734;2024-02-23T07:24:23;8.23;;;1.00;;
23614;SDS011;11985;49.404;7.734;2024-02-23T07:29:26;4.97;;;1.05;;
23614;SDS011;11985;49.404;7.734;2024-02-23T07:34:28;9.07;;;1.55;;
23614;SDS011;11985;49.404;7.734;2024-02-23T07:39:30;6.93;;;1.58;;
23614;SDS011;11985;49.404;7.734;2024-02-23T07:44:33;6.25;;;1.10;;
23614;SDS011;11985;49.404;7.734;2024-02-23T07:49:34;8.95;;;1.30;;
23614;SDS011;11985;49.404;7.734;2024-02-23T07:54:36;7.90;;;1.50;;
23614;SDS011;11985;49.404;7.734;2024-02-23T07:59:39;3.33;;;0.75;;
23614;SDS011;11985;49.404;7.734;2024-02-23T08:04:41;11.65;;;1.60;;
23614;SDS011;11985;49.404;7.734;2024-02-23T08:09:44;5.10;;;1.25;;
23614;SDS011;11985;49.404;7.734;2024-02-23T08:14:48;7.13;;;1.30;;
23614;SDS011;11985;49.404;7.734;2024-02-23T08:19:53;8.07;;;1.60;;
23614;SDS011;11985;49.404;7.734;2024-02-23T08:24:54;8.60;;;1.10;;
23614;SDS011;11985;49.404;7.734;2024-02-23T08:29:58;10.57;;;1.35;;
23614;SDS011;11985;49.404;7.734;2024-02-23T08:35:00;9.57;;;1.50;;
23614;SDS011;11985;49.404;7.734;2024-02-23T08:40:02;12.38;;;1.50;;
23614;SDS011;11985;49.404;7.734;2024-02-23T08:45:08;14.23;;;1.67;;
23614;SDS011;11985;49.404;7.734;2024-02-23T08:50:12;6.03;;;1.23;;
23614;SDS011;11985;49.404;7.734;2024-02-23T08:55:15;9.38;;;1.90;;
23614;SDS011;11985;49.404;7.734;2024-02-23T09:00:23;5.53;;;1.30;;
23614;SDS011;11985;49.404;7.734;2024-02-23T09:05:24;6.63;;;1.58;;
23614;SDS011;11985;49.404;7.734;2024-02-23T09:10:26;6.00;;;1.08;;
23614;SDS011;11985;49.404;7.734;2024-02-23T09:15:29;6.60;;;1.20;;
23614;SDS011;11985;49.404;7.734;2024-02-23T09:20:31;10.68;;;1.55;;
23614;SDS011;11985;49.404;7.734;2024-02-23T09:25:32;11.25;;;1.80;;
23614;SDS011;11985;49.404;7.734;2024-02-23T09:30:36;8.23;;;1.55;;
23614;SDS011;11985;49.404;7.734;2024-02-23T09:35:37;12.23;;;1.33;;
23614;SDS011;11985;49.404;7.734;2024-02-23T09:40:40;7.80;;;1.42;;
23614;SDS011;11985;49.404;7.734;2024-02-23T09:45:43;6.10;;;1.30;;
23614;SDS011;11985;49.404;7.734;2024-02-23T09:50:46;11.27;;;1.50;;
23614;SDS011;11985;49.404;7.734;2024-02-23T09:55:48;7.88;;;1.15;;
23614;SDS011;11985;49.404;7.734;2024-02-23T10:00:56;11.70;;;1.33;;
23614;SDS011;11985;49.404;7.734;2024-02-23T10:06:01;6.35;;;1.35;;
23614;SDS011;11985;49.404;7.734;2024-02-23T10:11:05;13.27;;;1.33;;
23614;SDS011;11985;49.404;7.734;2024-02-23T10:16:09;8.05;;;1.10;;
23614;SDS011;11985;49.404;7.734;2024-02-23T10:21:11;10.38;;;1.20;;
23614;SDS011;11985;49.404;7.734;2024-02-23T10:26:13;6.55;;;1.55;;
23614;SDS011;11985;49.404;7.734;2024-02-23T10:31:20;7.53;;;1.80;;
23614;SDS011;11985;49.404;7.734;2024-02-23T10:36:26;7.72;;;1.60;;
23614;SDS011;11985;49.404;7.734;2024-02-23T10:46:36;5.88;;;1.13;;
23614;SDS011;11985;49.404;7.734;2024-02-23T10:51:40;4.40;;;1.23;;
23614;SDS011;11985;49.404;7.734;2024-02-23T10:56:44;10.45;;;1.58;;
23614;SDS011;11985;49.404;7.734;2024-02-23T11:01:51;6.20;;;1.20;;
23614;SDS011;11985;49.404;7.734;2024-02-23T11:06:55;8.00;;;1.85;;
23614;SDS011;11985;49.404;7.734;2024-02-23T11:11:58;5.40;;;0.98;;
23614;SDS011;11985;49.404;7.734;2024-02-23T11:17:02;7.57;;;1.15;;
23614;SDS011;11985;49.404;7.734;2024-02-23T11:22:05;6.93;;;1.17;;
23614;SDS011;11985;49.404;7.734;2024-02-23T11:27:13;4.70;;;1.20;;
23614;SDS011;11985;49.404;7.734;2024-02-23T11:32:19;11.93;;;1.90;;
23614;SDS011;11985;49.404;7.734;2024-02-23T11:37:21;4.43;;;1.33;;
23614;SDS011;11985;49.404;7.734;2024-02-23T11:42:23;6.45;;;1.50;;
23614;SDS011;11985;49.404;7.734;2024-02-23T11:47:26;6.07;;;1.23;;
23614;SDS011;11985;49.404;7.734;2024-02-23T11:52:27;9.15;;;1.52;;
23614;SDS011;11985;49.404;7.734;2024-02-23T11:57:29;4.95;;;1.08;;
23614;SDS011;11985;49.404;7.734;2024-02-23T12:02:34;6.70;;;1.63;;
23614;SDS011;11985;49.404;7.734;2024-02-23T12:07:37;8.50;;;1.27;;
23614;SDS011;11985;49.404;7.734;2024-02-23T12:12:39;2.65;;;0.80;;
23614;SDS011;11985;49.404;7.734;2024-02-23T12:17:47;6.72;;;0.90;;
23614;SDS011;11985;49.404;7.734;2024-02-23T12:22:49;4.40;;;0.93;;
23614;SDS011;11985;49.404;7.734;2024-02-23T12:27:54;7.88;;;1.30;;
23614;SDS011;11985;49.404;7.734;2024-02-23T12:33:04;8.63;;;1.33;;
23614;SDS011;11985;49.404;7.734;2024-02-23T12:38:06;4.65;;;1.10;;
23614;SDS011;11985;49.404;7.734;2024-02-23T12:43:08;4.50;;;0.95;;
23614;SDS011;11985;49.404;7.734;2024-02-23T12:48:11;5.85;;;1.00;;
23614;SDS011;11985;49.404;7.734;2024-02-23T12:53:29;4.90;;;1.10;;
23614;SDS011;11985;49.404;7.734;2024-02-23T12:58:34;3.38;;;1.15;;
23614;SDS011;11985;49.404;7.734;2024-02-23T13:03:39;6.50;;;1.10;;
23614;SDS011;11985;49.404;7.734;2024-02-23T13:08:42;4.35;;;1.00;;
23614;SDS011;11985;49.404;7.734;2024-02-23T13:13:44;6.45;;;1.30;;
23614;SDS011;11985;49.404;7.734;2024-02-23T13:18:47;5.82;;;0.88;;
23614;SDS011;11985;49.404;7.734;2024-02-23T13:23:51;5.80;;;0.90;;
23614;SDS011;11985;49.404;7.734;2024-02-23T13:28:54;4.80;;;1.13;;
23614;SDS011;11985;49.404;7.734;2024-02-23T13:33:57;7.13;;;1.00;;
23614;SDS011;11985;49.404;7.734;2024-02-23T13:38:58;5.57;;;0.93;;
23614;SDS011;11985;49.404;7.734;2024-02-23T13:44:00;6.63;;;1.20;;
23614;SDS011;11985;49.404;7.734;2024-02-23T13:49:03;5.50;;;1.30;;
23614;SDS011;11985;49.404;7.734;2024-02-23T13:59:08;3.80;;;0.95;;
23614;SDS011;11985;49.404;7.734;2024-02-23T14:04:12;5.88;;;1.00;;
23614;SDS011;11985;49.404;7.734;2024-02-23T14:09:18;4.90;;;0.88;;
23614;SDS011;11985;49.404;7.734;2024-02-23T14:14:20;4.40;;;1.00;;
23614;SDS011;11985;49.404;7.734;2024-02-23T14:19:24;3.95;;;0.70;;
23614;SDS011;11985;49.404;7.734;2024-02-23T14:24:25;3.75;;;0.98;;
23614;SDS011;11985;49.404;7.734;2024-02-23T14:29:27;5.97;;;0.80;;
23614;SDS011;11985;49.404;7.734;2024-02-23T14:34:30;9.00;;;0.90;;
23614;SDS011;11985;49.404;7.734;2024-02-23T14:39:33;8.18;;;0.98;;
23614;SDS011;11985;49.404;7.734;2024-02-23T14:44:35;6.75;;;1.17;;
23614;SDS011;11985;49.404;7.734;2024-02-23T14:49:38;2.60;;;0.80;;
23614;SDS011;11985;49.404;7.734;2024-02-23T14:54:39;7.50;;;1.20;;
23614;SDS011;11985;49.404;7.734;2024-02-23T14:59:41;4.45;;;1.00;;
23614;SDS011;11985;49.404;7.734;2024-02-23T15:04:48;7.55;;;1.05;;
23614;SDS011;11985;49.404;7.734;2024-02-23T15:09:50;3.60;;;0.88;;
23614;SDS011;11985;49.404;7.734;2024-02-23T15:14:51;8.77;;;1.02;;
23614;SDS011;11985;49.404;7.734;2024-02-23T15:19:54;6.20;;;1.10;;
23614;SDS011;11985;49.404;7.734;2024-02-23T15:24:56;6.07;;;0.90;;
23614;SDS011;11985;49.404;7.734;2024-02-23T15:29:59;4.15;;;2.28;;
23614;SDS011;11985;49.404;7.734;2024-02-23T15:35:02;5.25;;;0.80;;
23614;SDS011;11985;49.404;7.734;2024-02-23T15:40:06;6.45;;;1.30;;
23614;SDS011;11985;49.404;7.734;2024-02-23T15:45:10;7.93;;;1.23;;
23614;SDS011;11985;49.404;7.734;2024-02-23T15:50:14;9.77;;;0.90;;
23614;SDS011;11985;49.404;7.734;2024-02-23T15:55:16;4.82;;;0.65;;
23614;SDS011;11985;49.404;7.734;2024-02-23T16:00:18;5.43;;;0.98;;
23614;SDS011;11985;49.404;7.734;2024-02-23T16:05:21;5.88;;;1.38;;
23614;SDS011;11985;49.404;7.734;2024-02-23T16:10:24;5.30;;;1.13;;
23614;SDS011;11985;49.404;7.734;2024-02-23T16:15:27;2.93;;;1.07;;
23614;SDS011;11985;49.404;7.734;2024-02-23T16:20:30;3.13;;;0.75;;
23614;SDS011;11985;49.404;7.734;2024-02-23T16:25:33;3.25;;;0.82;;
23614;SDS011;11985;49.404;7.734;2024-02-23T16:30:38;9.13;;;1.30;;
23614;SDS011;11985;49.404;7.734;2024-02-23T16:35:44;4.88;;;1.50;;
23614;SDS011;11985;49.404;7.734;2024-02-23T16:40:45;6.07;;;1.10;;
23614;SDS011;11985;49.404;7.734;2024-02-23T16:45:48;9.52;;;1.50;;
23614;SDS011;11985;49.404;7.734;2024-02-23T16:50:51;2.67;;;0.90;;
23614;SDS011;11985;49.404;7.734;2024-02-23T16:55:53;4.13;;;1.40;;
23614;SDS011;11985;49.404;7.734;2024-02-23T17:00:55;3.65;;;0.98;;
23614;SDS011;11985;49.404;7.734;2024-02-23T17:06:00;5.68;;;1.38;;
23614;SDS011;11985;49.404;7.734;2024-02-23T17:11:04;2.92;;;1.30;;
23614;SDS011;11985;49.404;7.734;2024-02-23T17:16:06;9.27;;;2.00;;
23614;SDS011;11985;49.404;7.734;2024-02-23T17:21:10;3.80;;;1.00;;
23614;SDS011;11985;49.404;7.734;2024-02-23T17:26:11;5.82;;;1.15;;
23614;SDS011;11985;49.404;7.734;2024-02-23T17:31:13;5.40;;;1.38;;
23614;SDS011;11985;49.404;7.734;2024-02-23T17:36:16;10.70;;;1.65;;
23614;SDS011;11985;49.404;7.734;2024-02-23T17:41:18;9.48;;;1.45;;
23614;SDS011;11985;49.404;7.734;2024-02-23T17:46:19;8.13;;;3.92;;
23614;SDS011;11985;49.404;7.734;2024-02-23T17:51:22;8.48;;;1.48;;
23614;SDS011;11985;49.404;7.734;2024-02-23T17:56:24;8.43;;;1.95;;
23614;SDS011;11985;49.404;7.734;2024-02-23T18:01:26;8.20;;;1.20;;
23614;SDS011;11985;49.404;7.734;2024-02-23T18:06:29;4.40;;;1.27;;
23614;SDS011;11985;49.404;7.734;2024-02-23T18:11:30;4.95;;;1.90;;
23614;SDS011;11985;49.404;7.734;2024-02-23T18:16:32;16.98;;;6.20;;
23614;SDS011;11985;49.404;7.734;2024-02-23T18:21:35;11.70;;;4.07;;
23614;SDS011;11985;49.404;7.734;2024-02-23T18:26:36;16.60;;;6.20;;
23614;SDS011;11985;49.404;7.734;2024-02-23T18:31:38;7.55;;;3.78;;
23614;SDS011;11985;49.404;7.734;2024-02-23T18:36:41;13.05;;;3.80;;
23614;SDS011;11985;49.404;7.734;2024-02-23T18:41:43;13.02;;;4.18;;
23614;SDS011;11985;49.404;7.734;2024-02-23T18:46:44;8.20;;;2.53;;
23614;SDS011;11985;49.404;7.734;2024-02-23T18:51:47;7.05;;;2.40;;
23614;SDS011;11985;49.404;7.734;2024-02-23T19:01:53;6.30;;;2.08;;
23614;SDS011;11985;49.404;7.734;2024-02-23T19:06:56;6.75;;;2.22;;
23614;SDS011;11985;49.404;7.734;2024-02-23T19:11:57;4.05;;;1.90;;
23614;SDS011;11985;49.404;7.734;2024-02-23T19:17:01;3.93;;;1.43;;
23614;SDS011;11985;49.404;7.734;2024-02-23T19:22:04;7.85;;;2.28;;
23614;SDS011;11985;49.404;7.734;2024-02-23T19:27:06;5.32;;;1.67;;
23614;SDS011;11985;49.404;7.734;2024-02-23T19:32:07;7.68;;;1.58;;
23614;SDS011;11985;49.404;7.734;2024-02-23T19:37:10;8.18;;;1.45;;
23614;SDS011;11985;49.404;7.734;2024-02-23T19:42:12;3.38;;;1.25;;
23614;SDS011;11985;49.404;7.734;2024-02-23T19:47:14;4.75;;;1.20;;
23614;SDS011;11985;49.404;7.734;2024-02-23T19:52:17;3.22;;;1.40;;
23614;SDS011;11985;49.404;7.734;2024-02-23T19:57:18;3.17;;;1.20;;
23614;SDS011;11985;49.404;7.734;2024-02-23T20:02:20;4.45;;;1.10;;
23614;SDS011;11985;49.404;7.734;2024-02-23T20:07:22;8.85;;;1.80;;
23614;SDS011;11985;49.404;7.734;2024-02-23T20:12:24;12.68;;;1.88;;
23614;SDS011;11985;49.404;7.734;2024-02-23T20:17:26;2.15;;;0.98;;
23614;SDS011;11985;49.404;7.734;2024-02-23T20:22:30;2.88;;;1.15;;
23614;SDS011;11985;49.404;7.734;2024-02-23T20:27:32;6.65;;;1.50;;
23614;SDS011;11985;49.404;7.734;2024-02-23T20:32:34;4.45;;;1.30;;
23614;SDS011;11985;49.404;7.734;2024-02-23T20:37:37;4.97;;;1.40;;
23614;SDS011;11985;49.404;7.734;2024-02-23T20:42:39;9.15;;;2.03;;
23614;SDS011;11985;49.404;7.734;2024-02-23T20:47:40;9.00;;;2.55;;
23614;SDS011;11985;49.404;7.734;2024-02-23T20:52:44;10.95;;;1.60;;
23614;SDS011;11985;49.404;7.734;2024-02-23T20:57:45;3.30;;;1.10;;
23614;SDS011;11985;49.404;7.734;2024-02-23T21:02:47;4.30;;;1.20;;
23614;SDS011;11985;49.404;7.734;2024-02-23T21:07:50;3.83;;;1.15;;
23614;SDS011;11985;49.404;7.734;2024-02-23T21:12:52;3.10;;;1.02;;
23614;SDS011;11985;49.404;7.734;2024-02-23T21:17:53;2.75;;;0.93;;
23614;SDS011;11985;49.404;7.734;2024-02-23T21:22:56;4.13;;;1.00;;
23614;SDS011;11985;49.404;7.734;2024-02-23T21:27:58;6.47;;;1.10;;
23614;SDS011;11985;49.404;7.734;2024-02-23T21:32:59;7.50;;;1.45;;
23614;SDS011;11985;49.404;7.734;2024-02-23T21:38:03;7.75;;;2.53;;
23614;SDS011;11985;49.404;7.734;2024-02-23T21:43:04;7.07;;;3.60;;
23614;SDS011;11985;49.404;7.734;2024-02-23T21:48:07;11.27;;;2.47;;
23614;SDS011;11985;49.404;7.734;2024-02-23T21:53:09;4.95;;;1.88;;
23614;SDS011;11985;49.404;7.734;2024-02-23T21:58:11;8.52;;;1.60;;
23614;SDS011;11985;49.404;7.734;2024-02-23T22:03:13;7.25;;;1.58;;
23614;SDS011;11985;49.404;7.734;2024-02-23T22:08:15;6.30;;;1.67;;
23614;SDS011;11985;49.404;7.734;2024-02-23T22:13:18;5.97;;;1.77;;
23614;SDS011;11985;49.404;7.734;2024-02-23T22:18:19;3.05;;;1.40;;
23614;SDS011;11985;49.404;7.734;2024-02-23T22:23:22;2.90;;;1.30;;
23614;SDS011;11985;49.404;7.734;2024-02-23T22:28:24;4.25;;;1.35;;
23614;SDS011;11985;49.404;7.734;2024-02-23T22:33:25;4.25;;;1.35;;
23614;SDS011;11985;49.404;7.734;2024-02-23T22:38:28;5.28;;;0.80;;
23614;SDS011;11985;49.404;7.734;2024-02-23T22:43:30;3.28;;;0.98;;
23614;SDS011;11985;49.404;7.734;2024-02-23T22:48:31;3.00;;;0.90;;
23614;SDS011;11985;49.404;7.734;2024-02-23T22:53:34;4.45;;;0.90;;
23614;SDS011;11985;49.404;7.734;2024-02-23T22:58:36;3.22;;;0.95;;
23614;SDS011;11985;49.404;7.734;2024-02-23T23:03:37;2.60;;;0.88;;
23614;SDS011;11985;49.404;7.734;2024-02-23T23:08:40;1.20;;;0.90;;
23614;SDS011;11985;49.404;7.734;2024-02-23T23:13:42;1.98;;;1.20;;
23614;SDS011;11985;49.404;7.734;2024-02-23T23:18:43;2.72;;;1.17;;
23614;SDS011;11985;49.404;7.734;2024-02-23T23:23:46;7.10;;;1.10;;
23614;SDS011;11985;49.404;7.734;2024-02-23T23:28:48;1.48;;;0.73;;
23614;SDS011;11985;49.404;7.734;2024-02-23T23:33:50;1.65;;;0.80;;
23614;SDS011;11985;49.404;7.734;2024-02-23T23:38:54;2.22;;;0.88;;
23614;SDS011;11985;49.404;7.734;2024-02-23T23:43:56;1.00;;;0.75;;
23614;SDS011;11985;49.404;7.734;2024-02-23T23:48:57;4.00;;;0.80;;
23614;SDS011;11985;49.404;7.734;2024-02-23T23:54:00;1.10;;;0.70;;
23614;SDS011;11985;49.404;7.734;2024-02-23T23:59:02;2.92;;;1.35;;
